createdAt,value
2016-12-29T00:00:10.054Z,37.37
2016-12-29T00:00:50.638Z,37.17
2016-12-29T00:01:31.235Z,37.37
2016-12-29T00:02:11.827Z,37.17
2016-12-29T00:02:52.407Z,37.17
2016-12-29T00:03:32.991Z,37.17
2016-12-29T00:04:13.575Z,37.27
2016-12-29T00:04:54.165Z,37.08
2016-12-29T00:05:34.755Z,37.27
2016-12-29T00:06:15.334Z,37.27
2016-12-29T00:06:55.920Z,37.15
2016-12-29T00:07:36.504Z,37.37
2016-12-29T00:08:17.085Z,37.17
2016-12-29T00:08:57.668Z,37.37
2016-12-29T00:09:38.250Z,37.17
2016-12-29T00:10:18.833Z,37.08
2016-12-29T00:10:59.415Z,37.27
2016-12-29T00:11:40.004Z,37.08
2016-12-29T00:12:20.588Z,37.17
2016-12-29T00:13:01.155Z,37.15
2016-12-29T00:13:41.735Z,37.27
2016-12-29T00:14:22.312Z,36.96
2016-12-29T00:15:02.903Z,37.15
2016-12-29T00:15:43.480Z,37.08
2016-12-29T00:16:24.068Z,37.27
2016-12-29T00:17:04.653Z,37.17
2016-12-29T00:17:45.236Z,37.17
2016-12-29T00:18:25.827Z,37.17
2016-12-29T00:19:06.419Z,37.27
2016-12-29T00:19:47.004Z,37.17
2016-12-29T00:20:27.584Z,37.08
2016-12-29T00:21:08.175Z,37.08
2016-12-29T00:21:48.768Z,37.06
2016-12-29T00:22:29.357Z,37.25
2016-12-29T00:23:09.953Z,37.46
2016-12-29T00:23:50.546Z,37.15
2016-12-29T00:24:31.138Z,37.17
2016-12-29T00:25:11.737Z,37.17
2016-12-29T00:25:52.328Z,36.96
2016-12-29T00:26:32.903Z,37.17
2016-12-29T00:27:13.498Z,37.15
2016-12-29T00:27:54.077Z,37.08
2016-12-29T00:28:35.447Z,37.17
2016-12-29T00:29:15.258Z,37.08
2016-12-29T00:29:55.841Z,37.15
2016-12-29T00:30:36.435Z,37.27
2016-12-29T00:31:17.045Z,37.06
2016-12-29T00:31:57.613Z,37.25
2016-12-29T00:32:38.205Z,37.06
2016-12-29T00:33:18.789Z,36.96
2016-12-29T00:33:59.403Z,37.06
2016-12-29T00:34:39.989Z,37.06
2016-12-29T00:35:20.575Z,37.06
2016-12-29T00:36:01.161Z,36.96
2016-12-29T00:36:41.751Z,36.96
2016-12-29T00:37:22.332Z,37.08
2016-12-29T00:38:02.914Z,37.15
2016-12-29T00:38:43.511Z,37.06
2016-12-29T00:39:24.108Z,36.96
2016-12-29T00:40:04.700Z,37.15
2016-12-29T00:40:45.282Z,36.98
2016-12-29T00:41:25.853Z,37.15
2016-12-29T00:42:06.434Z,37.15
2016-12-29T00:42:47.015Z,37.06
2016-12-29T00:43:27.599Z,37.06
2016-12-29T00:44:08.193Z,36.96
2016-12-29T00:44:48.787Z,37.25
2016-12-29T00:45:29.377Z,37.06
2016-12-29T00:46:09.970Z,37.08
2016-12-29T00:46:50.569Z,37.06
2016-12-29T00:47:31.156Z,37.06
2016-12-29T00:48:11.747Z,36.96
2016-12-29T00:48:52.331Z,37.17
2016-12-29T00:49:32.916Z,37.17
2016-12-29T00:50:13.500Z,37.06
2016-12-29T00:50:54.095Z,37.08
2016-12-29T00:51:34.683Z,36.88
2016-12-29T00:52:15.285Z,36.96
2016-12-29T00:52:55.869Z,37.06
2016-12-29T00:53:36.458Z,37.08
2016-12-29T00:54:17.048Z,37.06
2016-12-29T00:54:57.642Z,37.06
2016-12-29T00:55:38.242Z,36.98
2016-12-29T00:56:18.823Z,36.96
2016-12-29T00:56:59.406Z,36.98
2016-12-29T00:57:39.996Z,37.06
2016-12-29T00:58:20.577Z,37.08
2016-12-29T00:59:01.155Z,36.96
2016-12-29T00:59:41.759Z,37.08
2016-12-29T01:00:22.359Z,37.08
2016-12-29T01:01:02.948Z,37.06
2016-12-29T01:01:43.536Z,37.06
2016-12-29T01:02:24.129Z,37.15
2016-12-29T01:03:04.721Z,36.88
2016-12-29T01:03:45.295Z,37.06
2016-12-29T01:04:25.886Z,37.06
2016-12-29T01:05:06.468Z,37.06
2016-12-29T01:05:47.047Z,37.17
2016-12-29T01:06:27.633Z,37.06
2016-12-29T01:07:08.218Z,36.96
2016-12-29T01:07:48.798Z,36.96
2016-12-29T01:08:29.392Z,36.96
2016-12-29T01:09:09.981Z,36.87
2016-12-29T01:09:50.566Z,37.06
2016-12-29T01:10:31.144Z,37.06
2016-12-29T01:11:11.739Z,37.06
2016-12-29T01:11:52.320Z,37.15
2016-12-29T01:12:32.909Z,37.15
2016-12-29T01:13:13.521Z,36.98
2016-12-29T01:13:54.107Z,36.96
2016-12-29T01:14:34.686Z,36.98
2016-12-29T01:15:15.280Z,37.06
2016-12-29T01:15:55.857Z,37.15
2016-12-29T01:16:36.439Z,36.96
2016-12-29T01:17:17.026Z,37.06
2016-12-29T01:17:57.624Z,36.96
2016-12-29T01:18:38.208Z,36.88
2016-12-29T01:19:18.800Z,36.96
2016-12-29T01:19:59.377Z,36.87
2016-12-29T01:20:39.962Z,36.96
2016-12-29T01:21:20.539Z,36.77
2016-12-29T01:22:01.130Z,37.06
2016-12-29T01:22:41.706Z,37.06
2016-12-29T01:23:22.287Z,36.96
2016-12-29T01:24:02.873Z,37.06
2016-12-29T01:24:43.474Z,36.96
2016-12-29T01:25:24.051Z,36.96
2016-12-29T01:26:04.644Z,36.96
2016-12-29T01:26:45.235Z,37.17
2016-12-29T01:27:25.804Z,36.96
2016-12-29T01:28:06.393Z,37.08
2016-12-29T01:28:46.971Z,37.06
2016-12-29T01:29:27.553Z,37.06
2016-12-29T01:30:08.148Z,36.87
2016-12-29T01:30:48.737Z,37.06
2016-12-29T01:31:29.340Z,37.06
2016-12-29T01:32:09.959Z,37.06
2016-12-29T01:32:50.545Z,37.06
2016-12-29T01:33:31.153Z,36.96
2016-12-29T01:34:11.746Z,36.77
2016-12-29T01:34:52.349Z,36.96
2016-12-29T01:35:32.924Z,36.96
2016-12-29T01:36:13.508Z,36.96
2016-12-29T01:36:54.119Z,37.06
2016-12-29T01:37:34.718Z,37.06
2016-12-29T01:38:15.313Z,36.87
2016-12-29T01:38:55.913Z,36.96
2016-12-29T01:39:36.506Z,37.15
2016-12-29T01:40:17.093Z,36.96
2016-12-29T01:40:57.701Z,36.96
2016-12-29T01:41:38.281Z,37.06
2016-12-29T01:42:18.869Z,36.87
2016-12-29T01:42:59.459Z,36.96
2016-12-29T01:43:40.039Z,36.87
2016-12-29T01:44:20.620Z,36.87
2016-12-29T01:45:01.199Z,36.96
2016-12-29T01:45:41.790Z,36.87
2016-12-29T01:46:22.371Z,37.15
2016-12-29T01:47:02.952Z,37.06
2016-12-29T01:47:43.536Z,36.96
2016-12-29T01:48:24.126Z,37.06
2016-12-29T01:49:04.706Z,37.15
2016-12-29T01:49:45.309Z,37.15
2016-12-29T01:50:25.895Z,36.87
2016-12-29T01:51:06.494Z,36.96
2016-12-29T01:51:47.077Z,36.87
2016-12-29T01:52:27.660Z,36.87
2016-12-29T01:53:08.252Z,36.77
2016-12-29T01:53:48.851Z,36.77
2016-12-29T01:54:29.466Z,36.96
2016-12-29T01:55:10.061Z,37.15
2016-12-29T01:55:50.667Z,37.06
2016-12-29T01:56:31.250Z,36.87
2016-12-29T01:57:11.842Z,36.96
2016-12-29T01:57:52.420Z,37.06
2016-12-29T01:58:33.002Z,37.06
2016-12-29T01:59:13.607Z,37.06
2016-12-29T01:59:54.189Z,36.87
2016-12-29T02:00:34.774Z,36.87
2016-12-29T02:01:15.366Z,36.87
2016-12-29T02:01:55.949Z,36.87
2016-12-29T02:02:36.537Z,36.77
2016-12-29T02:03:17.130Z,36.87
2016-12-29T02:03:57.715Z,36.96
2016-12-29T02:04:38.297Z,36.87
2016-12-29T02:05:18.873Z,36.96
2016-12-29T02:05:59.471Z,36.77
2016-12-29T02:06:40.053Z,36.96
2016-12-29T02:07:20.640Z,36.96
2016-12-29T02:08:01.247Z,36.96
2016-12-29T02:08:41.836Z,36.77
2016-12-29T02:09:22.424Z,36.87
2016-12-29T02:10:03.018Z,36.96
2016-12-29T02:10:43.600Z,36.96
2016-12-29T02:11:24.183Z,36.96
2016-12-29T02:12:04.779Z,36.67
2016-12-29T02:12:45.374Z,36.77
2016-12-29T02:13:25.960Z,36.87
2016-12-29T02:14:06.556Z,36.77
2016-12-29T02:14:47.138Z,36.96
2016-12-29T02:15:27.712Z,36.96
2016-12-29T02:16:08.298Z,36.96
2016-12-29T02:16:48.892Z,36.87
2016-12-29T02:17:29.481Z,36.96
2016-12-29T02:18:10.057Z,36.87
2016-12-29T02:18:50.670Z,36.87
2016-12-29T02:19:31.253Z,36.87
2016-12-29T02:20:11.833Z,36.87
2016-12-29T02:20:52.424Z,36.77
2016-12-29T02:21:33.011Z,36.87
2016-12-29T02:22:13.598Z,36.87
2016-12-29T02:22:54.177Z,36.87
2016-12-29T02:23:34.770Z,36.87
2016-12-29T02:24:15.347Z,36.87
2016-12-29T02:24:55.944Z,36.77
2016-12-29T02:25:36.529Z,36.87
2016-12-29T02:26:17.123Z,36.67
2016-12-29T02:26:57.708Z,36.67
2016-12-29T02:27:38.279Z,36.67
2016-12-29T02:28:18.862Z,36.77
2016-12-29T02:28:59.442Z,36.87
2016-12-29T02:29:40.024Z,36.96
2016-12-29T02:30:20.607Z,36.67
2016-12-29T02:31:01.203Z,36.67
2016-12-29T02:31:41.794Z,36.77
2016-12-29T02:32:22.375Z,36.77
2016-12-29T02:33:02.978Z,36.77
2016-12-29T02:33:43.564Z,36.67
2016-12-29T02:34:24.162Z,36.87
2016-12-29T02:35:04.756Z,36.87
2016-12-29T02:35:45.336Z,36.87
2016-12-29T02:36:25.929Z,36.77
2016-12-29T02:37:06.511Z,36.77
2016-12-29T02:37:47.093Z,36.77
2016-12-29T02:38:27.689Z,36.77
2016-12-29T02:39:08.281Z,36.77
2016-12-29T02:39:48.878Z,36.67
2016-12-29T02:40:29.463Z,36.87
2016-12-29T02:41:10.095Z,36.77
2016-12-29T02:41:50.690Z,36.67
2016-12-29T02:42:31.276Z,36.67
2016-12-29T02:43:11.889Z,36.87
2016-12-29T02:43:52.498Z,36.57
2016-12-29T02:44:33.089Z,36.87
2016-12-29T02:45:13.683Z,36.67
2016-12-29T02:45:54.293Z,36.77
2016-12-29T02:46:34.873Z,36.77
2016-12-29T02:47:15.459Z,36.67
2016-12-29T02:47:56.049Z,36.67
2016-12-29T02:48:36.659Z,36.57
2016-12-29T02:49:17.253Z,36.67
2016-12-29T02:49:57.848Z,36.67
2016-12-29T02:50:38.443Z,36.77
2016-12-29T02:51:19.066Z,36.77
2016-12-29T02:51:59.666Z,36.77
2016-12-29T02:52:40.273Z,36.38
2016-12-29T02:53:20.861Z,36.57
2016-12-29T02:54:01.458Z,36.57
2016-12-29T02:54:42.036Z,36.67
2016-12-29T02:55:22.621Z,36.77
2016-12-29T02:56:03.198Z,36.57
2016-12-29T02:56:43.780Z,36.48
2016-12-29T02:57:24.376Z,36.57
2016-12-29T02:58:04.958Z,36.57
2016-12-29T02:58:45.544Z,36.57
2016-12-29T02:59:26.126Z,36.87
2016-12-29T03:00:06.715Z,36.67
2016-12-29T03:00:47.292Z,36.67
2016-12-29T03:01:27.886Z,36.77
2016-12-29T03:02:08.493Z,36.67
2016-12-29T03:02:49.101Z,36.87
2016-12-29T03:03:29.691Z,36.67
2016-12-29T03:04:10.290Z,36.57
2016-12-29T03:04:50.878Z,36.67
2016-12-29T03:05:31.463Z,36.77
2016-12-29T03:06:12.047Z,36.48
2016-12-29T03:06:52.639Z,36.57
2016-12-29T03:07:33.219Z,36.48
2016-12-29T03:08:13.834Z,36.48
2016-12-29T03:08:54.430Z,36.67
2016-12-29T03:09:35.037Z,36.38
2016-12-29T03:10:15.663Z,36.48
2016-12-29T03:10:56.257Z,36.87
2016-12-29T03:11:36.866Z,36.77
2016-12-29T03:12:17.464Z,36.77
2016-12-29T03:12:58.061Z,36.67
2016-12-29T03:13:38.665Z,36.48
2016-12-29T03:14:19.262Z,36.67
2016-12-29T03:14:59.853Z,36.48
2016-12-29T03:15:40.460Z,36.48
2016-12-29T03:16:21.088Z,36.57
2016-12-29T03:17:01.666Z,36.48
2016-12-29T03:17:42.275Z,36.77
2016-12-29T03:18:22.883Z,36.57
2016-12-29T03:19:03.479Z,36.57
2016-12-29T03:19:44.074Z,36.57
2016-12-29T03:20:24.683Z,36.57
2016-12-29T03:21:05.294Z,36.57
2016-12-29T03:21:45.887Z,36.48
2016-12-29T03:22:26.482Z,36.57
2016-12-29T03:23:07.089Z,36.48
2016-12-29T03:23:47.677Z,36.48
2016-12-29T03:24:28.289Z,36.57
2016-12-29T03:25:08.864Z,36.38
2016-12-29T03:25:49.449Z,36.57
2016-12-29T03:26:30.050Z,36.57
2016-12-29T03:27:10.643Z,36.57
2016-12-29T03:27:51.254Z,36.77
2016-12-29T03:28:31.856Z,36.57
2016-12-29T03:29:12.453Z,36.38
2016-12-29T03:29:53.042Z,36.48
2016-12-29T03:30:33.638Z,36.57
2016-12-29T03:31:14.226Z,36.48
2016-12-29T03:31:54.811Z,36.38
2016-12-29T03:32:35.391Z,36.48
2016-12-29T03:33:15.977Z,36.57
2016-12-29T03:33:56.551Z,36.57
2016-12-29T03:34:37.149Z,36.48
2016-12-29T03:35:17.756Z,36.57
2016-12-29T03:35:58.354Z,36.48
2016-12-29T03:36:38.932Z,36.38
2016-12-29T03:37:19.520Z,36.48
2016-12-29T03:38:00.107Z,36.38
2016-12-29T03:38:40.682Z,36.57
2016-12-29T03:39:21.273Z,36.48
2016-12-29T03:40:01.854Z,36.29
2016-12-29T03:40:42.444Z,36.38
2016-12-29T03:41:23.025Z,36.48
2016-12-29T03:42:03.625Z,36.38
2016-12-29T03:42:44.212Z,36.38
2016-12-29T03:43:24.794Z,36.48
2016-12-29T03:44:05.381Z,36.67
2016-12-29T03:44:45.970Z,36.57
2016-12-29T03:45:26.539Z,36.57
2016-12-29T03:46:07.120Z,36.48
2016-12-29T03:46:47.701Z,36.67
2016-12-29T03:47:28.284Z,36.48
2016-12-29T03:48:08.879Z,36.38
2016-12-29T03:48:49.479Z,36.38
2016-12-29T03:49:30.085Z,36.38
2016-12-29T03:50:10.684Z,36.48
2016-12-29T03:50:51.871Z,36.48
2016-12-29T03:51:32.458Z,36.57
2016-12-29T03:52:13.047Z,36.57
2016-12-29T03:52:53.625Z,36.38
2016-12-29T03:53:34.213Z,36.38
2016-12-29T03:54:14.798Z,36.57
2016-12-29T03:54:55.379Z,36.38
2016-12-29T03:55:35.961Z,36.38
2016-12-29T03:56:16.540Z,36.29
2016-12-29T03:56:57.122Z,36.29
2016-12-29T03:57:37.704Z,36.38
2016-12-29T03:58:18.284Z,36.19
2016-12-29T03:58:58.863Z,36.67
2016-12-29T03:59:39.444Z,36.48
2016-12-29T04:00:20.026Z,36.67
2016-12-29T04:01:00.623Z,36.48
2016-12-29T04:01:41.195Z,36.48
2016-12-29T04:02:21.782Z,36.29
2016-12-29T04:03:02.370Z,36.38
2016-12-29T04:03:42.950Z,36.48
2016-12-29T04:04:23.531Z,36.48
2016-12-29T04:05:04.130Z,36.29
2016-12-29T04:05:44.708Z,36.38
2016-12-29T04:06:25.291Z,36.38
2016-12-29T04:07:05.882Z,36.38
2016-12-29T04:07:46.463Z,36.38
2016-12-29T04:08:27.042Z,36.38
2016-12-29T04:09:07.633Z,36.38
2016-12-29T04:09:48.217Z,36.38
2016-12-29T04:10:28.794Z,36.38
2016-12-29T04:11:09.366Z,36.38
2016-12-29T04:11:49.952Z,36.57
2016-12-29T04:12:30.533Z,36.48
2016-12-29T04:13:11.144Z,36.48
2016-12-29T04:13:51.756Z,36.29
2016-12-29T04:14:32.344Z,36.29
2016-12-29T04:15:12.943Z,36.38
2016-12-29T04:15:53.529Z,36.38
2016-12-29T04:16:34.108Z,36.38
2016-12-29T04:17:14.712Z,36.48
2016-12-29T04:17:55.301Z,36.48
2016-12-29T04:18:35.884Z,36.29
2016-12-29T04:19:16.466Z,36.19
2016-12-29T04:19:57.046Z,36.19
2016-12-29T04:20:37.631Z,36.38
2016-12-29T04:21:18.223Z,36.19
2016-12-29T04:21:58.819Z,36.38
2016-12-29T04:22:39.409Z,36.38
2016-12-29T04:23:19.993Z,36.38
2016-12-29T04:24:00.597Z,36.29
2016-12-29T04:24:41.173Z,36.19
2016-12-29T04:25:21.773Z,36.29
2016-12-29T04:26:02.369Z,36.19
2016-12-29T04:26:42.951Z,36.38
2016-12-29T04:27:23.551Z,36.38
2016-12-29T04:28:04.141Z,36.19
2016-12-29T04:28:44.727Z,36.19
2016-12-29T04:29:25.315Z,36.38
2016-12-29T04:30:05.900Z,36.29
2016-12-29T04:30:46.482Z,36.38
2016-12-29T04:31:27.064Z,36.29
2016-12-29T04:32:07.657Z,36.09
2016-12-29T04:32:48.254Z,36
2016-12-29T04:33:28.839Z,36.19
2016-12-29T04:34:09.432Z,36.48
2016-12-29T04:34:50.019Z,36.38
2016-12-29T04:35:30.606Z,36.38
2016-12-29T04:36:11.191Z,36.29
2016-12-29T04:36:51.781Z,36.38
2016-12-29T04:37:32.366Z,36.38
2016-12-29T04:38:12.966Z,36.19
2016-12-29T04:38:53.547Z,36.19
2016-12-29T04:39:34.132Z,36.19
2016-12-29T04:40:14.723Z,36.09
2016-12-29T04:40:55.310Z,36.09
2016-12-29T04:41:35.900Z,36.19
2016-12-29T04:42:16.486Z,36
2016-12-29T04:42:57.089Z,36.38
2016-12-29T04:43:37.677Z,36.29
2016-12-29T04:44:18.264Z,36.19
2016-12-29T04:44:58.857Z,36.09
2016-12-29T04:45:39.452Z,36.29
2016-12-29T04:46:20.028Z,36.19
2016-12-29T04:47:00.617Z,36.19
2016-12-29T04:47:41.206Z,36.29
2016-12-29T04:48:21.794Z,36.29
2016-12-29T04:49:02.389Z,36.38
2016-12-29T04:49:42.970Z,36.19
2016-12-29T04:50:23.550Z,36.19
2016-12-29T04:51:04.150Z,36.38
2016-12-29T04:51:44.739Z,36.29
2016-12-29T04:52:25.320Z,36.29
2016-12-29T04:53:05.910Z,36.19
2016-12-29T04:53:46.487Z,36.19
2016-12-29T04:54:27.078Z,36.19
2016-12-29T04:55:07.671Z,36.29
2016-12-29T04:55:48.271Z,36.09
2016-12-29T04:56:28.876Z,36.09
2016-12-29T04:57:09.468Z,36.19
2016-12-29T04:57:50.043Z,36.09
2016-12-29T04:58:30.637Z,36
2016-12-29T04:59:11.221Z,36
2016-12-29T04:59:51.836Z,36
2016-12-29T05:00:32.442Z,36.38
2016-12-29T05:01:13.032Z,36.29
2016-12-29T05:01:53.615Z,36.19
2016-12-29T05:02:34.196Z,36.19
2016-12-29T05:03:14.779Z,36
2016-12-29T05:03:55.382Z,36.09
2016-12-29T05:04:35.960Z,36.09
2016-12-29T05:05:16.544Z,36.19
2016-12-29T05:05:57.125Z,36.09
2016-12-29T05:06:37.722Z,36
2016-12-29T05:07:18.312Z,36.19
2016-12-29T05:07:58.903Z,36.19
2016-12-29T05:08:39.511Z,36.29
2016-12-29T05:09:20.090Z,36.38
2016-12-29T05:10:00.665Z,36.09
2016-12-29T05:10:41.253Z,36.19
2016-12-29T05:11:21.838Z,36.09
2016-12-29T05:12:02.412Z,36.09
2016-12-29T05:12:43.010Z,36.19
2016-12-29T05:13:23.619Z,36.09
2016-12-29T05:14:04.209Z,36.19
2016-12-29T05:14:44.801Z,36.19
2016-12-29T05:15:25.391Z,36
2016-12-29T05:16:05.981Z,36.19
2016-12-29T05:16:46.579Z,36.19
2016-12-29T05:17:27.186Z,36.19
2016-12-29T05:18:07.774Z,36.29
2016-12-29T05:18:48.344Z,36.09
2016-12-29T05:19:28.941Z,36.19
2016-12-29T05:20:09.532Z,36.19
2016-12-29T05:20:50.124Z,36.19
2016-12-29T05:21:30.729Z,36.29
2016-12-29T05:22:11.311Z,36.19
2016-12-29T05:22:51.900Z,36
2016-12-29T05:23:32.489Z,36.29
2016-12-29T05:24:13.061Z,36.29
2016-12-29T05:24:53.659Z,36.09
2016-12-29T05:25:34.242Z,36.19
2016-12-29T05:26:14.840Z,36.09
2016-12-29T05:26:55.425Z,36
2016-12-29T05:27:36.007Z,36.19
2016-12-29T05:28:16.588Z,36.19
2016-12-29T05:28:57.175Z,36.09
2016-12-29T05:29:37.753Z,36.19
2016-12-29T05:30:18.339Z,36.19
2016-12-29T05:30:58.923Z,35.9
2016-12-29T05:31:39.507Z,36.09
2016-12-29T05:32:20.098Z,36.09
2016-12-29T05:33:00.683Z,36.09
2016-12-29T05:33:41.274Z,36.09
2016-12-29T05:34:21.870Z,36.09
2016-12-29T05:35:02.448Z,36.19
2016-12-29T05:35:43.027Z,35.9
2016-12-29T05:36:23.616Z,36
2016-12-29T05:37:04.195Z,36
2016-12-29T05:37:44.783Z,36.19
2016-12-29T05:38:25.377Z,36.09
2016-12-29T05:39:05.981Z,36.09
2016-12-29T05:39:46.559Z,36.09
2016-12-29T05:40:27.135Z,36.19
2016-12-29T05:41:07.721Z,36.09
2016-12-29T05:41:48.313Z,35.8
2016-12-29T05:42:28.902Z,35.9
2016-12-29T05:43:09.484Z,36.09
2016-12-29T05:43:50.074Z,36
2016-12-29T05:44:30.654Z,36.19
2016-12-29T05:45:11.243Z,35.9
2016-12-29T05:45:51.840Z,36.09
2016-12-29T05:46:32.413Z,35.9
2016-12-29T05:47:13.005Z,36.29
2016-12-29T05:47:53.583Z,35.9
2016-12-29T05:48:34.182Z,36.09
2016-12-29T05:49:14.769Z,36
2016-12-29T05:49:55.348Z,35.8
2016-12-29T05:50:35.937Z,36
2016-12-29T05:51:16.522Z,35.9
2016-12-29T05:51:57.121Z,36.09
2016-12-29T05:52:37.697Z,35.78
2016-12-29T05:53:18.280Z,35.9
2016-12-29T05:53:58.866Z,35.9
2016-12-29T05:54:39.446Z,36.19
2016-12-29T05:55:20.050Z,36
2016-12-29T05:56:00.646Z,36.09
2016-12-29T05:56:41.237Z,35.9
2016-12-29T05:57:21.809Z,35.9
2016-12-29T05:58:02.394Z,35.9
2016-12-29T05:58:42.976Z,35.98
2016-12-29T05:59:23.567Z,36.09
2016-12-29T06:00:04.151Z,36
2016-12-29T06:00:44.737Z,36.09
2016-12-29T06:01:25.342Z,35.8
2016-12-29T06:02:05.921Z,36
2016-12-29T06:02:46.515Z,36
2016-12-29T06:03:27.094Z,36
2016-12-29T06:04:07.673Z,35.71
2016-12-29T06:04:48.255Z,35.8
2016-12-29T06:05:28.845Z,36
2016-12-29T06:06:09.427Z,36.09
2016-12-29T06:06:50.007Z,35.8
2016-12-29T06:07:30.596Z,35.9
2016-12-29T06:08:11.192Z,35.8
2016-12-29T06:08:51.782Z,35.9
2016-12-29T06:09:32.381Z,36.09
2016-12-29T06:10:12.982Z,35.9
2016-12-29T06:10:53.560Z,36
2016-12-29T06:11:34.145Z,36
2016-12-29T06:12:14.736Z,36
2016-12-29T06:12:55.337Z,35.9
2016-12-29T06:13:35.943Z,35.9
2016-12-29T06:14:16.537Z,35.9
2016-12-29T06:14:57.132Z,35.8
2016-12-29T06:15:37.713Z,36.07
2016-12-29T06:16:18.321Z,35.98
2016-12-29T06:16:58.906Z,35.9
2016-12-29T06:17:39.500Z,36.19
2016-12-29T06:18:20.095Z,36.19
2016-12-29T06:19:00.687Z,36.09
2016-12-29T06:19:41.272Z,36.09
2016-12-29T06:20:21.872Z,35.9
2016-12-29T06:21:02.463Z,36.19
2016-12-29T06:21:43.046Z,35.9
2016-12-29T06:22:23.638Z,35.78
2016-12-29T06:23:04.218Z,36
2016-12-29T06:23:44.823Z,36
2016-12-29T06:24:25.429Z,35.98
2016-12-29T06:25:06.024Z,36
2016-12-29T06:25:46.626Z,36.09
2016-12-29T06:26:27.223Z,35.9
2016-12-29T06:27:07.801Z,35.9
2016-12-29T06:27:48.392Z,35.71
2016-12-29T06:28:28.978Z,35.8
2016-12-29T06:29:09.562Z,36
2016-12-29T06:29:50.168Z,35.9
2016-12-29T06:30:30.750Z,35.9
2016-12-29T06:31:11.356Z,35.69
2016-12-29T06:31:51.943Z,35.8
2016-12-29T06:32:32.524Z,35.98
2016-12-29T06:33:13.105Z,35.9
2016-12-29T06:33:53.699Z,35.9
2016-12-29T06:34:34.284Z,35.88
2016-12-29T06:35:14.859Z,35.88
2016-12-29T06:35:55.435Z,35.9
2016-12-29T06:36:36.005Z,35.9
2016-12-29T06:37:16.619Z,35.88
2016-12-29T06:37:57.208Z,35.9
2016-12-29T06:38:37.794Z,35.9
2016-12-29T06:39:18.375Z,35.9
2016-12-29T06:39:58.961Z,35.8
2016-12-29T06:40:39.558Z,36
2016-12-29T06:41:20.138Z,35.9
2016-12-29T06:42:00.717Z,35.9
2016-12-29T06:42:41.303Z,35.32
2016-12-29T06:43:21.888Z,35.42
2016-12-29T06:44:02.468Z,35.32
2016-12-29T06:44:43.093Z,35.9
2016-12-29T06:45:23.705Z,35.8
2016-12-29T06:46:04.287Z,35.88
2016-12-29T06:46:44.874Z,35.8
2016-12-29T06:47:25.455Z,35.8
2016-12-29T06:48:06.050Z,35.59
2016-12-29T06:48:46.628Z,36
2016-12-29T06:49:27.216Z,35.61
2016-12-29T06:50:07.800Z,35.9
2016-12-29T06:50:48.390Z,35.8
2016-12-29T06:51:29.002Z,36
2016-12-29T06:52:09.610Z,35.61
2016-12-29T06:52:50.203Z,35.69
2016-12-29T06:53:30.788Z,35.69
2016-12-29T06:54:11.376Z,35.88
2016-12-29T06:54:51.964Z,35.61
2016-12-29T06:55:32.579Z,35.88
2016-12-29T06:56:13.167Z,35.88
2016-12-29T06:56:53.753Z,35.78
2016-12-29T06:57:34.342Z,35.69
2016-12-29T06:58:14.940Z,35.5
2016-12-29T06:58:55.532Z,35.69
2016-12-29T06:59:36.144Z,35.88
2016-12-29T07:00:16.724Z,35.78
2016-12-29T07:00:57.313Z,35.9
2016-12-29T07:01:37.907Z,35.4
2016-12-29T07:02:18.491Z,35.52
2016-12-29T07:02:59.120Z,35.71
2016-12-29T07:03:39.703Z,35.59
2016-12-29T07:04:20.285Z,35.8
2016-12-29T07:05:00.873Z,35.5
2016-12-29T07:05:41.468Z,35.88
2016-12-29T07:06:22.054Z,35.88
2016-12-29T07:07:02.629Z,35.69
2016-12-29T07:07:43.224Z,35.78
2016-12-29T07:08:23.805Z,35.9
2016-12-29T07:09:04.382Z,36
2016-12-29T07:09:44.974Z,35.78
2016-12-29T07:10:25.559Z,35.78
2016-12-29T07:11:06.152Z,35.59
2016-12-29T07:11:46.741Z,35.59
2016-12-29T07:12:27.334Z,35.59
2016-12-29T07:13:07.919Z,35.88
2016-12-29T07:13:48.497Z,35.59
2016-12-29T07:14:29.092Z,35.78
2016-12-29T07:15:09.681Z,35.3
2016-12-29T07:15:50.273Z,35.98
2016-12-29T07:16:30.861Z,35.78
2016-12-29T07:17:11.447Z,35.98
2016-12-29T07:17:52.036Z,35.98
2016-12-29T07:18:32.624Z,35.88
2016-12-29T07:19:13.207Z,35.98
2016-12-29T07:19:53.790Z,35.3
2016-12-29T07:20:34.379Z,35.5
2016-12-29T07:21:14.977Z,35.98
2016-12-29T07:21:55.566Z,35.88
2016-12-29T07:22:36.161Z,35.78
2016-12-29T07:23:16.743Z,35.69
2016-12-29T07:23:57.325Z,35.78
2016-12-29T07:24:37.910Z,35.69
2016-12-29T07:25:18.494Z,35.78
2016-12-29T07:25:59.096Z,35.69
2016-12-29T07:26:39.697Z,35.88
2016-12-29T07:27:20.294Z,35.88
2016-12-29T07:28:00.888Z,35.88
2016-12-29T07:28:41.476Z,35.78
2016-12-29T07:29:22.058Z,35.98
2016-12-29T07:30:02.648Z,35.98
2016-12-29T07:30:43.234Z,35.88
2016-12-29T07:31:23.830Z,35.78
2016-12-29T07:32:04.432Z,35.9
2016-12-29T07:32:45.030Z,35.8
2016-12-29T07:33:25.620Z,35.88
2016-12-29T07:34:06.235Z,35.88
2016-12-29T07:34:46.821Z,35.88
2016-12-29T07:35:27.412Z,35.88
2016-12-29T07:36:08.003Z,36
2016-12-29T07:36:48.576Z,35.88
2016-12-29T07:37:29.156Z,35.69
2016-12-29T07:38:09.738Z,35.98
2016-12-29T07:38:50.334Z,35.88
2016-12-29T07:39:30.933Z,35.88
2016-12-29T07:40:11.505Z,36
2016-12-29T07:40:52.104Z,35.78
2016-12-29T07:41:32.718Z,35.98
2016-12-29T07:42:13.309Z,36
2016-12-29T07:42:53.908Z,35.78
2016-12-29T07:43:34.486Z,36
2016-12-29T07:44:15.078Z,35.98
2016-12-29T07:44:55.658Z,36
2016-12-29T07:45:36.251Z,36
2016-12-29T07:46:16.830Z,35.88
2016-12-29T07:46:57.416Z,35.8
2016-12-29T07:47:37.994Z,35.9
2016-12-29T07:48:18.583Z,36
2016-12-29T07:48:59.217Z,35.9
2016-12-29T07:49:39.816Z,35.8
2016-12-29T07:50:20.399Z,36
2016-12-29T07:51:00.990Z,36
2016-12-29T07:51:41.583Z,35.9
2016-12-29T07:52:22.176Z,36
2016-12-29T07:53:02.793Z,36
2016-12-29T07:53:43.402Z,35.8
2016-12-29T07:54:24.016Z,35.9
2016-12-29T07:55:04.612Z,36
2016-12-29T07:55:45.221Z,35.71
2016-12-29T07:56:25.810Z,35.9
2016-12-29T07:57:06.415Z,35.9
2016-12-29T07:57:47.015Z,35.8
2016-12-29T07:58:27.610Z,35.88
2016-12-29T07:59:08.220Z,35.8
2016-12-29T07:59:48.805Z,35.8
2016-12-29T08:00:29.414Z,35.88
2016-12-29T08:01:10.010Z,35.9
2016-12-29T08:01:50.597Z,35.9
2016-12-29T08:02:31.203Z,35.9
2016-12-29T08:03:11.782Z,35.8
2016-12-29T08:03:52.408Z,35.71
2016-12-29T08:04:33.001Z,35.8
2016-12-29T08:05:13.577Z,35.9
2016-12-29T08:05:54.173Z,35.8
2016-12-29T08:06:34.785Z,35.59
2016-12-29T08:07:15.391Z,35.8
2016-12-29T08:07:55.998Z,35.42
2016-12-29T08:08:36.603Z,35.9
2016-12-29T08:09:17.205Z,35.9
2016-12-29T08:09:57.799Z,35.52
2016-12-29T08:10:38.368Z,35.42
2016-12-29T08:11:18.965Z,35.42
2016-12-29T08:11:59.557Z,35.61
2016-12-29T08:12:40.134Z,35.42
2016-12-29T08:13:20.711Z,35.71
2016-12-29T08:14:01.301Z,35.42
2016-12-29T08:14:41.910Z,35.52
2016-12-29T08:15:22.518Z,35.52
2016-12-29T08:16:03.122Z,35.52
2016-12-29T08:16:43.717Z,35.52
2016-12-29T08:17:24.311Z,35.61
2016-12-29T08:18:04.908Z,35.52
2016-12-29T08:18:45.504Z,35.52
2016-12-29T08:19:26.116Z,35.71
2016-12-29T08:20:06.733Z,35.9
2016-12-29T08:20:47.338Z,35.42
2016-12-29T08:21:27.942Z,35.52
2016-12-29T08:22:08.541Z,35.61
2016-12-29T08:22:49.146Z,35.61
2016-12-29T08:23:29.736Z,35.52
2016-12-29T08:24:10.322Z,35.61
2016-12-29T08:24:50.912Z,35.8
2016-12-29T08:25:31.499Z,35.42
2016-12-29T08:26:12.079Z,35.61
2016-12-29T08:26:52.694Z,35.52
2016-12-29T08:27:33.287Z,35.61
2016-12-29T08:28:13.892Z,35.52
2016-12-29T08:28:54.485Z,35.52
2016-12-29T08:29:35.108Z,35.52
2016-12-29T08:30:15.724Z,35.61
2016-12-29T08:30:56.313Z,35.52
2016-12-29T08:31:36.900Z,35.61
2016-12-29T08:32:17.514Z,35.61
2016-12-29T08:32:58.115Z,35.61
2016-12-29T08:33:38.704Z,35.52
2016-12-29T08:34:19.300Z,35.52
2016-12-29T08:34:59.879Z,35.61
2016-12-29T08:35:40.463Z,35.52
2016-12-29T08:36:21.081Z,35.22
2016-12-29T08:37:01.679Z,35.13
2016-12-29T08:37:42.262Z,35.42
2016-12-29T08:38:22.881Z,35.32
2016-12-29T08:39:03.474Z,34.94
2016-12-29T08:39:44.080Z,34.45
2016-12-29T08:40:24.691Z,34.45
2016-12-29T08:41:05.283Z,33.48
2016-12-29T08:41:45.875Z,33.78
2016-12-29T08:42:26.488Z,33.2
2016-12-29T08:43:07.070Z,33.39
2016-12-29T08:43:47.679Z,33.58
2016-12-29T08:44:28.268Z,33.87
2016-12-29T08:45:08.865Z,33.58
2016-12-29T08:45:49.474Z,34.16
2016-12-29T08:46:30.069Z,34.16
2016-12-29T08:47:10.667Z,34.36